createdAt,value
2023-01-09T00:01:31.385Z,96.39
2023-01-09T00:03:59.171Z,96.24
2023-01-09T00:06:27.326Z,96.06
2023-01-09T00:08:55.172Z,96.13
2023-01-09T00:11:23.265Z,96.28
2023-01-09T00:13:50.946Z,96.25
2023-01-09T00:16:19.555Z,95.66
2023-01-09T00:18:47.216Z,96.21
2023-01-09T00:21:15.648Z,95.98
2023-01-09T00:23:43.340Z,96.45
2023-01-09T00:26:14.428Z,96.59
2023-01-09T00:28:42.094Z,96.29
2023-01-09T00:31:10.845Z,96.13
2023-01-09T00:34:06.884Z,95.95
2023-01-09T00:36:34.990Z,96.67
2023-01-09T00:39:02.771Z,96.73
2023-01-09T00:41:40.087Z,96.57
2023-01-09T00:44:22.288Z,96.48
2023-01-09T00:46:55.552Z,97.02
2023-01-09T00:49:23.599Z,96.76
2023-01-09T00:51:52.222Z,97.14
2023-01-09T00:54:20.423Z,96.70
2023-01-09T00:56:49.226Z,96.41
2023-01-09T00:59:16.905Z,97.06
2023-01-09T01:01:44.884Z,96.34
2023-01-09T01:04:31.148Z,96.50
2023-01-09T01:07:22.322Z,96.20
2023-01-09T01:09:50.040Z,96.93
2023-01-09T01:12:18.015Z,96.75
2023-01-09T01:14:45.598Z,96.72
2023-01-09T01:17:13.478Z,97.04
2023-01-09T01:19:41.163Z,96.75
2023-01-09T01:22:09.196Z,96.68
2023-01-09T01:24:36.870Z,96.75
2023-01-09T01:27:04.877Z,96.84
2023-01-09T01:29:32.587Z,96.74
2023-01-09T01:32:00.506Z,96.64
2023-01-09T01:34:29.907Z,96.30
2023-01-09T01:36:57.797Z,96.25
2023-01-09T01:39:25.442Z,95.80
2023-01-09T01:41:53.377Z,96.10
2023-01-09T01:44:59.672Z,95.77
2023-01-09T01:47:49.330Z,96.01
2023-01-09T01:50:35.329Z,95.86
2023-01-09T01:53:12.001Z,95.76
2023-01-09T01:55:47.064Z,95.86
2023-01-09T01:58:15.910Z,95.94
2023-01-09T02:00:46.774Z,95.88
2023-01-09T02:03:19.595Z,95.80
2023-01-09T02:05:47.391Z,96.47
2023-01-09T02:08:15.877Z,96.22
2023-01-09T02:10:44.893Z,96.14
2023-01-09T02:13:13.806Z,96.36
2023-01-09T02:16:18.373Z,96.47
2023-01-09T02:18:54.157Z,96.53
2023-01-09T02:21:39.351Z,95.96
2023-01-09T02:24:23.872Z,95.86
2023-01-09T02:26:57.486Z,96.36
2023-01-09T02:29:45.091Z,96.22
2023-01-09T02:32:24.932Z,96.21
2023-01-09T02:35:11.866Z,96.27
2023-01-09T02:38:09.730Z,95.74
2023-01-09T02:40:52.543Z,96.47
2023-01-09T02:43:20.864Z,95.68
2023-01-09T02:45:48.867Z,95.69
2023-01-09T02:48:16.558Z,95.79
2023-01-09T02:51:08.045Z,95.58
2023-01-09T02:54:02.542Z,95.17
2023-01-09T02:56:54.959Z,95.50
2023-01-09T02:59:34.535Z,95.99
2023-01-09T03:02:16.965Z,96.36
2023-01-09T03:04:59.390Z,96.80
2023-01-09T03:07:45.379Z,96.50
2023-01-09T03:10:32.952Z,96.91
2023-01-09T03:13:03.284Z,96.90
2023-01-09T03:15:35.197Z,97.70
2023-01-09T03:18:06.186Z,97.54
2023-01-09T03:20:34.747Z,96.98
2023-01-09T03:23:04.838Z,97.20
2023-01-09T03:25:33.155Z,96.82
2023-01-09T03:28:03.601Z,96.91
2023-01-09T03:30:32.933Z,96.40
2023-01-09T03:33:00.907Z,96.39
2023-01-09T03:35:28.810Z,96.45
2023-01-09T03:37:56.734Z,96.74
2023-01-09T03:40:24.410Z,97.37
2023-01-09T03:42:52.354Z,96.87
2023-01-09T03:45:20.153Z,97.07
2023-01-09T03:47:48.223Z,97.02
2023-01-09T03:50:16.059Z,97.08
2023-01-09T03:52:43.996Z,96.93
2023-01-09T03:55:11.941Z,97.11
2023-01-09T03:57:39.869Z,96.67
2023-01-09T04:00:08.580Z,96.78
2023-01-09T04:02:45.403Z,96.87
2023-01-09T04:05:13.799Z,96.62
2023-01-09T04:07:41.772Z,96.58
2023-01-09T04:10:11.648Z,96.54
2023-01-09T04:12:39.872Z,96.37
2023-01-09T04:15:07.941Z,96.29
2023-01-09T04:17:35.836Z,96.07
2023-01-09T04:20:04.004Z,96.61
2023-01-09T04:22:32.090Z,96.40
2023-01-09T04:24:59.767Z,96.88
2023-01-09T04:27:27.687Z,96.58
2023-01-09T04:29:55.333Z,97.16
2023-01-09T04:32:23.272Z,97.34
2023-01-09T04:34:50.891Z,97.26
2023-01-09T04:37:18.822Z,96.90
2023-01-09T04:39:46.540Z,96.91
2023-01-09T04:42:14.516Z,96.87
2023-01-09T04:44:42.298Z,97.15
2023-01-09T04:47:10.277Z,97.23
2023-01-09T04:49:37.957Z,96.86
2023-01-09T04:52:06.393Z,97.34
2023-01-09T04:54:34.601Z,97.73
2023-01-09T04:57:02.535Z,97.60
2023-01-09T04:59:30.188Z,98.08
2023-01-09T05:01:59.451Z,97.83
2023-01-09T05:04:27.322Z,97.16
2023-01-09T05:06:55.368Z,96.94
2023-01-09T05:09:23.146Z,97.04
2023-01-09T05:11:51.202Z,97.53
2023-01-09T05:14:19.159Z,96.89
2023-01-09T05:16:47.159Z,97.64
2023-01-09T05:19:15.073Z,97.30
2023-01-09T05:21:43.006Z,97.36
2023-01-09T05:24:10.583Z,97.27
2023-01-09T05:26:38.520Z,97.15
2023-01-09T05:29:06.121Z,98.02
2023-01-09T05:31:34.107Z,97.65
2023-01-09T05:34:01.959Z,98.04
2023-01-09T05:36:30.004Z,97.65
2023-01-09T05:39:02.620Z,97.52
2023-01-09T05:41:30.664Z,97.41
2023-01-09T05:43:58.487Z,96.80
2023-01-09T05:46:26.380Z,97.18
2023-01-09T05:48:54.039Z,97.10
2023-01-09T05:51:22.181Z,97.55
2023-01-09T05:53:50.305Z,97.48
2023-01-09T05:56:18.370Z,97.24
2023-01-09T05:58:46.018Z,97.06
2023-01-09T06:01:13.938Z,97.22
2023-01-09T06:03:41.687Z,96.87
2023-01-09T06:06:09.609Z,97.19
2023-01-09T06:08:37.235Z,97.00
2023-01-09T06:11:05.213Z,97.07
2023-01-09T06:13:32.959Z,96.68
2023-01-09T06:16:00.887Z,96.88
2023-01-09T06:18:28.512Z,97.21
2023-01-09T06:20:56.434Z,97.89
2023-01-09T06:23:24.116Z,97.51
2023-01-09T06:25:51.975Z,97.25
2023-01-09T06:28:19.647Z,97.12
2023-01-09T06:30:52.337Z,97.16
2023-01-09T06:33:20.592Z,97.72
2023-01-09T06:35:48.482Z,98.31
2023-01-09T06:38:16.150Z,98.39
2023-01-09T06:40:44.094Z,98.81
2023-01-09T06:43:11.720Z,99.37
2023-01-09T06:45:39.711Z,99.59
2023-01-09T06:48:07.488Z,100.00
2023-01-09T06:50:35.587Z,100.00
2023-01-09T06:53:03.819Z,100.00
2023-01-09T06:55:31.710Z,100.00
2023-01-09T06:57:59.315Z,100.00
2023-01-09T07:00:27.366Z,99.84
2023-01-09T07:02:54.997Z,100.00
2023-01-09T07:05:23.272Z,100.00
2023-01-09T07:07:51.454Z,99.87
2023-01-09T07:10:19.592Z,99.68
2023-01-09T07:12:47.344Z,99.59
2023-01-09T07:15:15.344Z,99.39
2023-01-09T07:17:43.021Z,99.32
2023-01-09T07:20:11.480Z,99.09
2023-01-09T07:22:39.209Z,98.66
2023-01-09T07:25:07.514Z,98.91
2023-01-09T07:27:35.259Z,98.44
2023-01-09T07:30:04.102Z,98.05
2023-01-09T07:32:32.581Z,97.77
2023-01-09T07:35:00.508Z,97.38
2023-01-09T07:37:28.218Z,96.91
2023-01-09T07:39:56.172Z,97.07
2023-01-09T07:42:23.786Z,96.92
2023-01-09T07:44:51.773Z,96.60
2023-01-09T07:47:19.382Z,96.47
2023-01-09T07:49:47.337Z,96.76
2023-01-09T07:52:15.172Z,96.19
2023-01-09T07:54:43.158Z,95.72
2023-01-09T07:57:10.768Z,95.96
2023-01-09T07:59:38.646Z,96.06
2023-01-09T08:02:07.268Z,95.60
2023-01-09T08:04:35.272Z,95.48
2023-01-09T08:07:03.423Z,94.79
2023-01-09T08:09:31.424Z,94.97
2023-01-09T08:11:59.076Z,94.62
2023-01-09T08:14:27.026Z,94.08
2023-01-09T08:16:54.619Z,93.18
2023-01-09T08:19:22.691Z,92.57
2023-01-09T08:21:50.748Z,91.97
2023-01-09T08:24:18.775Z,91.09
2023-01-09T08:26:46.626Z,90.23
2023-01-09T08:29:14.727Z,89.93
2023-01-09T08:31:42.557Z,89.59
2023-01-09T08:34:10.511Z,89.05
2023-01-09T08:36:38.115Z,88.69
2023-01-09T08:39:06.082Z,88.45
2023-01-09T08:41:52.361Z,88.26
2023-01-09T08:44:38.861Z,87.65
2023-01-09T08:47:06.749Z,87.45
2023-01-09T08:49:39.013Z,87.44
2023-01-09T08:52:07.823Z,87.04
2023-01-09T08:54:38.966Z,87.28
2023-01-09T08:57:07.819Z,87.54
2023-01-09T08:59:36.888Z,87.49
2023-01-09T09:02:04.651Z,87.43
2023-01-09T09:04:32.558Z,87.43
2023-01-09T09:07:00.237Z,87.65
2023-01-09T09:09:28.147Z,87.67
2023-01-09T09:11:55.889Z,87.69
2023-01-09T09:14:42.547Z,87.87
2023-01-09T09:17:10.285Z,87.71
2023-01-09T09:19:39.611Z,87.93
2023-01-09T09:22:07.327Z,88.20
2023-01-09T09:24:35.201Z,88.03
2023-01-09T09:27:03.317Z,88.22
2023-01-09T09:29:31.187Z,88.02
2023-01-09T09:32:00.827Z,87.76
2023-01-09T09:34:28.964Z,87.58
2023-01-09T09:36:56.619Z,87.63
2023-01-09T09:39:24.559Z,87.37
2023-01-09T09:42:22.526Z,87.64
2023-01-09T09:45:03.456Z,87.12
2023-01-09T09:47:43.571Z,86.73
2023-01-09T09:50:17.641Z,86.18
2023-01-09T09:53:08.471Z,86.13
2023-01-09T09:55:40.187Z,85.97
2023-01-09T09:58:32.082Z,86.16
2023-01-09T10:01:01.552Z,85.81
2023-01-09T10:03:50.362Z,85.88
2023-01-09T10:06:38.270Z,85.28
2023-01-09T10:09:57.611Z,85.17
2023-01-09T10:12:29.610Z,84.79
2023-01-09T10:15:17.856Z,84.92
2023-01-09T10:18:10.095Z,85.18
2023-01-09T10:20:53.035Z,85.02
2023-01-09T10:23:49.735Z,85.59
2023-01-09T10:26:41.864Z,85.52
2023-01-09T10:29:47.953Z,85.88
2023-01-09T10:32:37.606Z,86.08
2023-01-09T10:35:48.143Z,86.19
2023-01-09T10:38:33.884Z,86.54
2023-01-09T10:41:20.946Z,86.89
2023-01-09T10:44:15.369Z,87.70
2023-01-09T10:46:54.402Z,88.62
2023-01-09T10:49:24.220Z,89.21
2023-01-09T10:52:05.429Z,89.87
2023-01-09T10:54:33.174Z,90.37
2023-01-09T10:57:14.608Z,92.03
2023-01-09T10:59:43.029Z,93.07
2023-01-09T11:02:33.513Z,94.00
2023-01-09T11:05:01.482Z,95.06
2023-01-09T11:07:39.421Z,95.84
2023-01-09T11:10:11.838Z,96.62
2023-01-09T11:12:40.431Z,97.04
2023-01-09T11:15:19.465Z,97.91
2023-01-09T11:17:50.513Z,98.02
2023-01-09T11:20:36.523Z,98.42
2023-01-09T11:23:04.615Z,99.48
2023-01-09T11:25:32.257Z,100.00
2023-01-09T11:28:02.955Z,100.00
2023-01-09T11:30:34.106Z,100.00
2023-01-09T11:33:13.783Z,100.00
2023-01-09T11:35:56.165Z,100.00
2023-01-09T11:38:24.230Z,100.00
2023-01-09T11:41:04.210Z,100.00
2023-01-09T11:43:44.962Z,100.00
2023-01-09T11:46:41.929Z,100.00
2023-01-09T11:49:25.060Z,100.00
2023-01-09T11:52:20.588Z,100.00
2023-01-09T11:54:59.930Z,100.00
2023-01-09T11:57:28.025Z,100.00
2023-01-09T12:00:06.027Z,100.00
2023-01-09T12:03:14.693Z,100.00
2023-01-09T12:05:42.693Z,100.00
2023-01-09T12:08:28.805Z,100.00
2023-01-09T12:11:10.825Z,100.00
2023-01-09T12:14:06.059Z,100.00
2023-01-09T12:16:58.791Z,100.00
2023-01-09T12:20:01.224Z,100.00
2023-01-09T12:22:44.451Z,100.00
2023-01-09T12:25:22.011Z,100.00
2023-01-09T12:28:03.261Z,100.00
2023-01-09T12:30:52.130Z,100.00
2023-01-09T12:33:44.786Z,100.00
2023-01-09T12:36:27.806Z,100.00
2023-01-09T12:39:08.165Z,100.00
2023-01-09T12:41:44.858Z,100.00
2023-01-09T12:44:50.355Z,100.00
2023-01-09T12:47:36.865Z,100.00
2023-01-09T12:50:23.249Z,100.00
2023-01-09T12:53:06.839Z,100.00
2023-01-09T12:55:40.601Z,100.00
2023-01-09T12:59:05.426Z,100.00
2023-01-09T13:01:46.631Z,100.00
2023-01-09T13:04:30.630Z,100.00
2023-01-09T13:07:00.711Z,100.00
2023-01-09T13:09:45.872Z,100.00
2023-01-09T13:12:21.698Z,100.00
2023-01-09T13:15:00.778Z,100.00
2023-01-09T13:17:32.011Z,100.00
2023-01-09T13:19:59.650Z,100.00
2023-01-09T13:22:29.818Z,100.00
2023-01-09T13:25:20.012Z,100.00
2023-01-09T13:27:58.489Z,100.00
2023-01-09T13:30:52.309Z,100.00
2023-01-09T13:33:23.691Z,100.00
2023-01-09T13:35:54.024Z,100.00
2023-01-09T13:38:28.535Z,100.00
2023-01-09T13:41:32.839Z,100.00
2023-01-09T13:44:24.347Z,100.00
2023-01-09T13:46:59.224Z,100.00
2023-01-09T13:49:40.297Z,100.00
2023-01-09T13:52:33.018Z,100.00
2023-01-09T13:55:04.096Z,100.00
2023-01-09T13:57:38.404Z,100.00
2023-01-09T14:00:15.420Z,100.00
2023-01-09T14:02:44.932Z,100.00
2023-01-09T14:05:12.928Z,100.00
2023-01-09T14:07:42.533Z,100.00
2023-01-09T14:10:34.621Z,100.00
2023-01-09T14:13:12.605Z,100.00
2023-01-09T14:15:44.915Z,100.00
2023-01-09T14:18:34.769Z,100.00
2023-01-09T14:24:04.479Z,100.00
2023-01-09T14:26:46.094Z,100.00
2023-01-09T14:29:40.236Z,100.00
2023-01-09T14:32:23.327Z,100.00
2023-01-09T14:35:08.780Z,100.00
2023-01-09T14:37:40.078Z,100.00
2023-01-09T14:40:19.385Z,100.00
2023-01-09T14:42:51.875Z,100.00
2023-01-09T14:45:23.512Z,100.00
2023-01-09T14:48:11.222Z,100.00
2023-01-09T14:50:45.152Z,100.00
2023-01-09T14:53:18.364Z,100.00
2023-01-09T14:55:57.947Z,100.00
2023-01-09T14:58:37.890Z,100.00
2023-01-09T15:01:18.913Z,100.00
2023-01-09T15:03:51.534Z,100.00
2023-01-09T15:06:25.559Z,100.00
2023-01-09T15:09:08.438Z,100.00
2023-01-09T15:11:39.938Z,100.00
2023-01-09T15:14:14.100Z,100.00
2023-01-09T15:16:45.801Z,100.00
2023-01-09T15:19:15.351Z,100.00
2023-01-09T15:22:04.679Z,100.00
2023-01-09T15:24:34.619Z,100.00
2023-01-09T15:27:13.074Z,100.00
2023-01-09T15:29:41.647Z,100.00
2023-01-09T15:32:24.911Z,100.00
2023-01-09T15:34:54.786Z,100.00
2023-01-09T15:37:30.467Z,100.00
2023-01-09T15:40:01.708Z,100.00
2023-01-09T15:42:52.542Z,100.00
2023-01-09T15:45:34.053Z,100.00
2023-01-09T15:48:20.612Z,100.00
2023-01-09T15:50:51.128Z,100.00
2023-01-09T15:53:21.508Z,100.00
2023-01-09T15:56:20.307Z,100.00
2023-01-09T15:58:50.110Z,100.00
2023-01-09T16:01:18.066Z,100.00
2023-01-09T16:03:45.866Z,100.00
2023-01-09T16:06:28.989Z,100.00
2023-01-09T16:08:59.330Z,100.00
2023-01-09T16:11:33.243Z,100.00
2023-01-09T16:14:16.502Z,100.00
2023-01-09T16:16:46.133Z,100.00
2023-01-09T16:19:49.996Z,100.00
2023-01-09T16:22:29.835Z,100.00
2023-01-09T16:25:02.544Z,100.00
2023-01-09T16:27:33.539Z,100.00
2023-01-09T16:30:03.300Z,100.00
2023-01-09T16:32:31.479Z,100.00
2023-01-09T16:35:06.436Z,100.00
2023-01-09T16:37:36.040Z,100.00
2023-01-09T16:40:12.664Z,100.00
2023-01-09T16:42:59.666Z,100.00
2023-01-09T16:45:28.762Z,100.00
2023-01-09T16:47:58.110Z,100.00
2023-01-09T16:50:26.392Z,100.00
2023-01-09T16:52:55.833Z,100.00
2023-01-09T16:55:23.636Z,100.00
2023-01-09T16:57:51.887Z,100.00
2023-01-09T17:00:21.247Z,100.00
2023-01-09T17:02:49.286Z,100.00
2023-01-09T17:05:17.118Z,100.00
2023-01-09T17:07:45.102Z,100.00
2023-01-09T17:10:22.891Z,100.00
2023-01-09T17:12:50.892Z,100.00
2023-01-09T17:15:18.686Z,100.00
2023-01-09T17:17:46.646Z,100.00
2023-01-09T17:20:19.285Z,100.00
2023-01-09T17:22:47.282Z,100.00
2023-01-09T17:25:34.516Z,100.00
2023-01-09T17:28:22.333Z,100.00
2023-01-09T17:30:50.161Z,100.00
2023-01-09T17:33:19.213Z,100.00
2023-01-09T17:35:47.035Z,100.00
2023-01-09T17:38:16.179Z,100.00
2023-01-09T17:40:44.625Z,100.00
2023-01-09T17:43:13.408Z,100.00
2023-01-09T17:45:42.266Z,100.00
2023-01-09T17:48:21.834Z,100.00
2023-01-09T17:50:50.100Z,100.00
2023-01-09T17:53:20.695Z,100.00
2023-01-09T17:55:48.555Z,100.00
2023-01-09T17:58:26.107Z,100.00
2023-01-09T18:00:53.871Z,100.00
2023-01-09T18:03:23.279Z,100.00
2023-01-09T18:05:51.233Z,100.00
2023-01-09T18:08:19.190Z,100.00
2023-01-09T18:10:48.561Z,100.00
2023-01-09T18:13:17.616Z,100.00
2023-01-09T18:15:46.570Z,100.00
2023-01-09T18:18:16.176Z,100.00
2023-01-09T18:20:45.508Z,100.00
2023-01-09T18:23:14.004Z,100.00
2023-01-09T18:25:43.110Z,100.00
2023-01-09T18:28:15.293Z,100.00
2023-01-09T18:30:47.747Z,100.00
2023-01-09T18:33:16.194Z,100.00
2023-01-09T18:35:44.980Z,100.00
2023-01-09T18:38:13.819Z,100.00
2023-01-09T18:40:41.942Z,100.00
2023-01-09T18:43:11.484Z,100.00
2023-01-09T18:45:39.457Z,100.00
2023-01-09T18:48:07.935Z,100.00
2023-01-09T18:50:35.702Z,100.00
2023-01-09T18:53:03.719Z,100.00
2023-01-09T18:55:31.383Z,100.00
2023-01-09T18:57:59.447Z,100.00
2023-01-09T19:00:27.129Z,100.00
2023-01-09T19:02:55.081Z,100.00
2023-01-09T19:05:23.367Z,100.00
2023-01-09T19:07:51.526Z,100.00
2023-01-09T19:10:19.392Z,100.00
2023-01-09T19:12:47.379Z,100.00
2023-01-09T19:15:15.000Z,100.00
2023-01-09T19:17:43.034Z,100.00
2023-01-09T19:20:11.383Z,100.00
2023-01-09T19:22:39.308Z,100.00
2023-01-09T19:25:07.296Z,100.00
2023-01-09T19:27:35.314Z,100.00
2023-01-09T19:30:03.247Z,100.00
2023-01-09T19:32:31.335Z,100.00
2023-01-09T19:34:58.949Z,100.00
2023-01-09T19:37:26.937Z,100.00
2023-01-09T19:39:54.596Z,100.00
2023-01-09T19:42:22.498Z,100.00
2023-01-09T19:44:50.236Z,100.00
2023-01-09T19:47:18.183Z,100.00
2023-01-09T19:49:46.494Z,100.00
2023-01-09T19:52:14.796Z,100.00
2023-01-09T19:54:42.531Z,100.00
2023-01-09T19:57:10.482Z,100.00
2023-01-09T19:59:40.015Z,100.00
2023-01-09T20:02:11.029Z,100.00
2023-01-09T20:04:38.879Z,100.00
2023-01-09T20:07:07.300Z,100.00
2023-01-09T20:09:35.052Z,100.00
2023-01-09T20:12:05.290Z,100.00
2023-01-09T20:14:36.510Z,100.00
2023-01-09T20:17:04.766Z,100.00
2023-01-09T20:19:33.233Z,100.00
2023-01-09T20:22:01.594Z,100.00
2023-01-09T20:24:29.518Z,100.00
2023-01-09T20:26:57.443Z,100.00
2023-01-09T20:29:25.664Z,100.00
2023-01-09T20:31:53.679Z,100.00
2023-01-09T20:34:21.356Z,100.00
2023-01-09T20:36:49.448Z,100.00
2023-01-09T20:39:17.184Z,100.00
2023-01-09T20:41:45.450Z,100.00
2023-01-09T20:44:14.542Z,100.00
2023-01-09T20:46:47.477Z,100.00
2023-01-09T20:49:18.453Z,100.00
2023-01-09T20:51:49.306Z,100.00
2023-01-09T20:54:18.426Z,100.00
2023-01-09T20:56:46.287Z,100.00
2023-01-09T20:59:23.111Z,100.00
2023-01-09T21:01:51.474Z,100.00
2023-01-09T21:04:19.637Z,100.00
2023-01-09T21:06:49.781Z,100.00
2023-01-09T21:09:18.439Z,100.00
2023-01-09T21:11:46.476Z,100.00
2023-01-09T21:14:14.171Z,100.00
2023-01-09T21:16:45.512Z,100.00
2023-01-09T21:19:19.592Z,100.00
2023-01-09T21:21:47.554Z,100.00
2023-01-09T21:24:15.316Z,100.00
2023-01-09T21:26:44.457Z,100.00
2023-01-09T21:29:13.663Z,100.00
2023-01-09T21:31:44.153Z,100.00
2023-01-09T21:34:14.840Z,100.00
2023-01-09T21:36:45.000Z,100.00
2023-01-09T21:39:12.808Z,100.00
2023-01-09T21:41:59.479Z,100.00
2023-01-09T21:44:45.986Z,100.00
2023-01-09T21:47:14.162Z,100.00
2023-01-09T21:49:43.535Z,100.00
2023-01-09T21:52:13.081Z,100.00
2023-01-09T21:54:41.799Z,100.00
2023-01-09T21:57:10.115Z,100.00
2023-01-09T21:59:37.796Z,100.00
2023-01-09T22:02:05.747Z,100.00
2023-01-09T22:04:33.621Z,100.00
2023-01-09T22:07:01.650Z,100.00
2023-01-09T22:09:29.458Z,100.00
2023-01-09T22:11:57.816Z,100.00
2023-01-09T22:14:25.467Z,100.00
2023-01-09T22:16:53.528Z,100.00
2023-01-09T22:19:21.222Z,100.00
2023-01-09T22:21:49.580Z,100.00
2023-01-09T22:24:18.815Z,100.00
2023-01-09T22:26:47.579Z,100.00
2023-01-09T22:29:16.375Z,100.00
2023-01-09T22:31:44.581Z,100.00
2023-01-09T22:34:17.313Z,100.00
2023-01-09T22:36:46.638Z,100.00
2023-01-09T22:39:16.245Z,100.00
2023-01-09T22:41:44.878Z,100.00
2023-01-09T22:44:13.189Z,100.00
2023-01-09T22:46:41.113Z,100.00
2023-01-09T22:49:12.136Z,100.00
2023-01-09T22:51:40.565Z,100.00
2023-01-09T22:54:08.384Z,100.00
2023-01-09T22:56:36.525Z,100.00
2023-01-09T22:59:04.385Z,100.00
2023-01-09T23:01:32.371Z,100.00
2023-01-09T23:04:00.046Z,100.00
2023-01-09T23:06:27.942Z,100.00
2023-01-09T23:08:55.665Z,100.00
2023-01-09T23:11:47.271Z,100.00
2023-01-09T23:14:15.317Z,100.00
2023-01-09T23:16:43.474Z,100.00
2023-01-09T23:19:16.904Z,100.00
2023-01-09T23:21:45.623Z,100.00
2023-01-09T23:24:15.521Z,100.00
2023-01-09T23:26:44.706Z,100.00
2023-01-09T23:29:13.430Z,100.00
2023-01-09T23:31:41.746Z,100.00
2023-01-09T23:34:12.868Z,100.00
2023-01-09T23:36:41.208Z,100.00
2023-01-09T23:39:10.151Z,100.00
2023-01-09T23:41:57.035Z,100.00
2023-01-09T23:44:24.938Z,100.00
2023-01-09T23:46:53.433Z,100.00
2023-01-09T23:49:21.192Z,100.00
2023-01-09T23:51:49.101Z,100.00
2023-01-09T23:54:17.749Z,100.00
2023-01-09T23:56:45.735Z,100.00
2023-01-09T23:59:14.654Z,100.00
